sensor_id;sensor_type;location;lat;lon;timestamp;P1;durP1;ratioP1;P2;durP2;ratioP2
58918;SDS011;44704;50.122;19.932;2022-09-17T00:04:08;20.00;;;14.20;;
58918;SDS011;44704;50.122;19.932;2022-09-17T00:06:38;22.30;;;15.90;;
58918;SDS011;44704;50.122;19.932;2022-09-17T00:09:07;25.20;;;17.10;;
58918;SDS011;44704;50.122;19.932;2022-09-17T00:11:48;25.90;;;16.50;;
58918;SDS011;44704;50.122;19.932;2022-09-17T00:14:15;24.50;;;16.60;;
58918;SDS011;44704;50.122;19.932;2022-09-17T00:16:44;23.60;;;16.80;;
58918;SDS011;44704;50.122;19.932;2022-09-17T00:19:20;24.20;;;16.60;;
58918;SDS011;44704;50.122;19.932;2022-09-17T00:21:48;24.20;;;16.90;;
58918;SDS011;44704;50.122;19.932;2022-09-17T00:24:16;26.70;;;15.80;;
58918;SDS011;44704;50.122;19.932;2022-09-17T00:26:48;22.50;;;15.90;;
58918;SDS011;44704;50.122;19.932;2022-09-17T00:29:17;19.50;;;14.50;;
58918;SDS011;44704;50.122;19.932;2022-09-17T00:31:47;21.60;;;15.00;;
58918;SDS011;44704;50.122;19.932;2022-09-17T00:34:15;22.30;;;15.00;;
58918;SDS011;44704;50.122;19.932;2022-09-17T00:36:44;22.20;;;14.90;;
58918;SDS011;44704;50.122;19.932;2022-09-17T00:39:14;23.00;;;15.30;;
58918;SDS011;44704;50.122;19.932;2022-09-17T00:41:45;22.10;;;15.60;;
58918;SDS011;44704;50.122;19.932;2022-09-17T00:47:11;21.70;;;15.40;;
58918;SDS011;44704;50.122;19.932;2022-09-17T00:50:13;23.50;;;17.20;;
58918;SDS011;44704;50.122;19.932;2022-09-17T00:52:48;27.00;;;18.10;;
58918;SDS011;44704;50.122;19.932;2022-09-17T00:55:22;25.90;;;16.80;;
58918;SDS011;44704;50.122;19.932;2022-09-17T00:58:07;26.30;;;17.40;;
58918;SDS011;44704;50.122;19.932;2022-09-17T01:00:51;23.30;;;17.00;;
58918;SDS011;44704;50.122;19.932;2022-09-17T01:03:18;24.80;;;16.60;;
58918;SDS011;44704;50.122;19.932;2022-09-17T01:05:51;24.20;;;16.70;;
58918;SDS011;44704;50.122;19.932;2022-09-17T01:08:43;23.10;;;16.80;;
58918;SDS011;44704;50.122;19.932;2022-09-17T01:11:29;24.60;;;17.10;;
58918;SDS011;44704;50.122;19.932;2022-09-17T01:14:30;23.80;;;15.90;;
58918;SDS011;44704;50.122;19.932;2022-09-17T01:23:28;24.30;;;16.00;;
58918;SDS011;44704;50.122;19.932;2022-09-17T01:28:43;23.50;;;16.20;;
58918;SDS011;44704;50.122;19.932;2022-09-17T01:31:32;24.00;;;16.30;;
58918;SDS011;44704;50.122;19.932;2022-09-17T01:34:04;24.30;;;16.80;;
58918;SDS011;44704;50.122;19.932;2022-09-17T01:39:32;22.40;;;16.70;;
58918;SDS011;44704;50.122;19.932;2022-09-17T01:42:24;25.80;;;18.10;;
58918;SDS011;44704;50.122;19.932;2022-09-17T01:47:53;22.30;;;16.50;;
58918;SDS011;44704;50.122;19.932;2022-09-17T01:50:30;23.30;;;16.80;;
58918;SDS011;44704;50.122;19.932;2022-09-17T01:53:16;25.50;;;17.50;;
58918;SDS011;44704;50.122;19.932;2022-09-17T01:55:48;25.30;;;18.00;;
58918;SDS011;44704;50.122;19.932;2022-09-17T01:58:24;26.70;;;17.10;;
58918;SDS011;44704;50.122;19.932;2022-09-17T02:00:57;28.10;;;17.30;;
58918;SDS011;44704;50.122;19.932;2022-09-17T02:03:35;24.90;;;15.90;;
58918;SDS011;44704;50.122;19.932;2022-09-17T02:06:10;22.80;;;16.20;;
58918;SDS011;44704;50.122;19.932;2022-09-17T02:08:45;22.60;;;16.30;;
58918;SDS011;44704;50.122;19.932;2022-09-17T02:11:17;21.80;;;16.40;;
58918;SDS011;44704;50.122;19.932;2022-09-17T02:16:21;22.80;;;14.00;;
58918;SDS011;44704;50.122;19.932;2022-09-17T02:19:11;20.70;;;13.90;;
58918;SDS011;44704;50.122;19.932;2022-09-17T02:21:56;17.10;;;13.50;;
58918;SDS011;44704;50.122;19.932;2022-09-17T02:24:51;22.20;;;14.90;;
58918;SDS011;44704;50.122;19.932;2022-09-17T02:27:51;19.90;;;14.00;;
58918;SDS011;44704;50.122;19.932;2022-09-17T02:30:28;23.70;;;15.30;;
58918;SDS011;44704;50.122;19.932;2022-09-17T02:32:56;21.50;;;15.30;;
58918;SDS011;44704;50.122;19.932;2022-09-17T02:35:23;21.30;;;16.40;;
58918;SDS011;44704;50.122;19.932;2022-09-17T02:37:50;21.20;;;16.50;;
58918;SDS011;44704;50.122;19.932;2022-09-17T02:40:18;21.10;;;15.40;;
58918;SDS011;44704;50.122;19.932;2022-09-17T02:53:36;17.50;;;11.90;;
58918;SDS011;44704;50.122;19.932;2022-09-17T02:58:45;15.60;;;9.90;;
58918;SDS011;44704;50.122;19.932;2022-09-17T03:01:47;14.50;;;11.00;;
58918;SDS011;44704;50.122;19.932;2022-09-17T03:04:12;14.00;;;10.10;;
58918;SDS011;44704;50.122;19.932;2022-09-17T03:06:44;14.70;;;11.00;;
58918;SDS011;44704;50.122;19.932;2022-09-17T03:09:13;12.00;;;9.20;;
58918;SDS011;44704;50.122;19.932;2022-09-17T03:11:40;16.40;;;10.50;;
58918;SDS011;44704;50.122;19.932;2022-09-17T03:14:08;12.70;;;9.00;;
58918;SDS011;44704;50.122;19.932;2022-09-17T03:16:35;15.30;;;10.60;;
58918;SDS011;44704;50.122;19.932;2022-09-17T03:19:02;13.50;;;10.30;;
58918;SDS011;44704;50.122;19.932;2022-09-17T03:21:29;12.70;;;9.90;;
58918;SDS011;44704;50.122;19.932;2022-09-17T03:23:56;14.50;;;10.30;;
58918;SDS011;44704;50.122;19.932;2022-09-17T03:26:25;15.70;;;9.10;;
58918;SDS011;44704;50.122;19.932;2022-09-17T03:28:55;13.50;;;8.20;;
58918;SDS011;44704;50.122;19.932;2022-09-17T03:31:24;13.10;;;8.80;;
58918;SDS011;44704;50.122;19.932;2022-09-17T03:33:50;13.10;;;9.30;;
58918;SDS011;44704;50.122;19.932;2022-09-17T03:36:17;10.20;;;7.80;;
58918;SDS011;44704;50.122;19.932;2022-09-17T03:38:44;10.10;;;7.50;;
58918;SDS011;44704;50.122;19.932;2022-09-17T03:41:11;9.50;;;7.10;;
58918;SDS011;44704;50.122;19.932;2022-09-17T03:43:38;10.70;;;7.70;;
58918;SDS011;44704;50.122;19.932;2022-09-17T03:46:05;11.00;;;8.50;;
58918;SDS011;44704;50.122;19.932;2022-09-17T03:48:32;12.40;;;8.40;;
58918;SDS011;44704;50.122;19.932;2022-09-17T03:51:02;14.60;;;9.90;;
58918;SDS011;44704;50.122;19.932;2022-09-17T03:53:30;10.80;;;9.50;;
58918;SDS011;44704;50.122;19.932;2022-09-17T03:55:58;14.50;;;8.10;;
58918;SDS011;44704;50.122;19.932;2022-09-17T03:58:27;16.90;;;10.00;;
58918;SDS011;44704;50.122;19.932;2022-09-17T04:00:55;13.60;;;9.00;;
58918;SDS011;44704;50.122;19.932;2022-09-17T04:03:24;13.10;;;10.00;;
58918;SDS011;44704;50.122;19.932;2022-09-17T04:05:51;11.80;;;8.80;;
58918;SDS011;44704;50.122;19.932;2022-09-17T04:08:18;11.10;;;8.80;;
58918;SDS011;44704;50.122;19.932;2022-09-17T04:10:46;10.70;;;8.90;;
58918;SDS011;44704;50.122;19.932;2022-09-17T04:13:14;12.30;;;8.60;;
58918;SDS011;44704;50.122;19.932;2022-09-17T04:15:42;10.90;;;8.50;;
58918;SDS011;44704;50.122;19.932;2022-09-17T04:18:10;13.00;;;9.00;;
58918;SDS011;44704;50.122;19.932;2022-09-17T04:20:37;12.00;;;9.00;;
58918;SDS011;44704;50.122;19.932;2022-09-17T04:23:05;13.60;;;9.20;;
58918;SDS011;44704;50.122;19.932;2022-09-17T04:25:34;13.70;;;9.20;;
58918;SDS011;44704;50.122;19.932;2022-09-17T04:28:01;12.40;;;9.50;;
58918;SDS011;44704;50.122;19.932;2022-09-17T04:30:28;15.60;;;10.10;;
58918;SDS011;44704;50.122;19.932;2022-09-17T04:32:55;14.20;;;9.90;;
58918;SDS011;44704;50.122;19.932;2022-09-17T04:35:22;15.00;;;10.60;;
58918;SDS011;44704;50.122;19.932;2022-09-17T04:37:58;13.20;;;10.50;;
58918;SDS011;44704;50.122;19.932;2022-09-17T04:40:25;14.30;;;10.40;;
58918;SDS011;44704;50.122;19.932;2022-09-17T04:42:53;15.70;;;11.60;;
58918;SDS011;44704;50.122;19.932;2022-09-17T04:45:22;14.50;;;11.00;;
58918;SDS011;44704;50.122;19.932;2022-09-17T04:47:49;16.00;;;10.70;;
58918;SDS011;44704;50.122;19.932;2022-09-17T04:50:19;16.20;;;10.90;;
58918;SDS011;44704;50.122;19.932;2022-09-17T04:52:46;14.60;;;11.10;;
58918;SDS011;44704;50.122;19.932;2022-09-17T04:55:14;16.90;;;11.80;;
58918;SDS011;44704;50.122;19.932;2022-09-17T04:57:49;14.60;;;12.10;;
58918;SDS011;44704;50.122;19.932;2022-09-17T05:00:18;16.40;;;11.50;;
58918;SDS011;44704;50.122;19.932;2022-09-17T05:02:47;16.20;;;12.00;;
58918;SDS011;44704;50.122;19.932;2022-09-17T05:05:15;16.40;;;12.10;;
58918;SDS011;44704;50.122;19.932;2022-09-17T05:07:44;15.00;;;11.60;;
58918;SDS011;44704;50.122;19.932;2022-09-17T05:10:11;17.90;;;11.80;;
58918;SDS011;44704;50.122;19.932;2022-09-17T05:15:07;14.90;;;11.50;;
58918;SDS011;44704;50.122;19.932;2022-09-17T05:17:34;17.40;;;11.70;;
58918;SDS011;44704;50.122;19.932;2022-09-17T05:20:01;19.00;;;12.80;;
58918;SDS011;44704;50.122;19.932;2022-09-17T05:22:28;15.80;;;11.60;;
58918;SDS011;44704;50.122;19.932;2022-09-17T05:24:55;19.50;;;12.10;;
58918;SDS011;44704;50.122;19.932;2022-09-17T05:27:23;17.10;;;11.20;;
58918;SDS011;44704;50.122;19.932;2022-09-17T05:29:50;16.70;;;11.80;;
58918;SDS011;44704;50.122;19.932;2022-09-17T05:32:17;17.70;;;11.30;;
58918;SDS011;44704;50.122;19.932;2022-09-17T05:34:44;15.90;;;11.40;;
58918;SDS011;44704;50.122;19.932;2022-09-17T05:37:11;13.60;;;11.00;;
58918;SDS011;44704;50.122;19.932;2022-09-17T05:39:38;13.60;;;11.00;;
58918;SDS011;44704;50.122;19.932;2022-09-17T05:42:04;14.50;;;10.10;;
58918;SDS011;44704;50.122;19.932;2022-09-17T05:44:31;16.40;;;10.50;;
58918;SDS011;44704;50.122;19.932;2022-09-17T05:46:58;16.40;;;9.50;;
58918;SDS011;44704;50.122;19.932;2022-09-17T05:49:25;12.00;;;9.00;;
58918;SDS011;44704;50.122;19.932;2022-09-17T05:51:52;12.30;;;10.20;;
58918;SDS011;44704;50.122;19.932;2022-09-17T05:54:19;12.70;;;9.20;;
58918;SDS011;44704;50.122;19.932;2022-09-17T05:56:46;12.70;;;10.20;;
58918;SDS011;44704;50.122;19.932;2022-09-17T05:59:13;13.00;;;10.90;;
58918;SDS011;44704;50.122;19.932;2022-09-17T06:01:41;13.10;;;9.70;;
58918;SDS011;44704;50.122;19.932;2022-09-17T06:04:08;10.60;;;8.80;;
58918;SDS011;44704;50.122;19.932;2022-09-17T06:06:34;12.20;;;8.80;;
58918;SDS011;44704;50.122;19.932;2022-09-17T06:09:07;10.40;;;9.10;;
58918;SDS011;44704;50.122;19.932;2022-09-17T06:11:34;13.00;;;9.20;;
58918;SDS011;44704;50.122;19.932;2022-09-17T06:14:02;15.90;;;9.10;;
58918;SDS011;44704;50.122;19.932;2022-09-17T06:16:29;10.00;;;8.10;;
58918;SDS011;44704;50.122;19.932;2022-09-17T06:18:56;14.50;;;10.40;;
58918;SDS011;44704;50.122;19.932;2022-09-17T06:21:23;13.90;;;10.40;;
58918;SDS011;44704;50.122;19.932;2022-09-17T06:23:50;13.20;;;10.50;;
58918;SDS011;44704;50.122;19.932;2022-09-17T06:26:18;16.30;;;9.70;;
58918;SDS011;44704;50.122;19.932;2022-09-17T06:28:45;13.30;;;9.50;;
58918;SDS011;44704;50.122;19.932;2022-09-17T06:31:11;16.80;;;10.90;;
58918;SDS011;44704;50.122;19.932;2022-09-17T06:33:39;12.00;;;9.50;;
58918;SDS011;44704;50.122;19.932;2022-09-17T06:38:37;11.10;;;9.20;;
58918;SDS011;44704;50.122;19.932;2022-09-17T06:41:04;12.40;;;9.60;;
58918;SDS011;44704;50.122;19.932;2022-09-17T06:43:31;12.30;;;9.60;;
58918;SDS011;44704;50.122;19.932;2022-09-17T06:45:59;12.40;;;9.10;;
58918;SDS011;44704;50.122;19.932;2022-09-17T06:48:27;11.60;;;8.70;;
58918;SDS011;44704;50.122;19.932;2022-09-17T06:51:00;13.30;;;8.40;;
58918;SDS011;44704;50.122;19.932;2022-09-17T06:53:28;10.70;;;8.90;;
58918;SDS011;44704;50.122;19.932;2022-09-17T06:55:57;12.40;;;8.60;;
58918;SDS011;44704;50.122;19.932;2022-09-17T06:58:25;9.20;;;7.60;;
58918;SDS011;44704;50.122;19.932;2022-09-17T07:00:53;11.70;;;8.00;;
58918;SDS011;44704;50.122;19.932;2022-09-17T07:03:25;7.70;;;6.50;;
58918;SDS011;44704;50.122;19.932;2022-09-17T07:05:52;8.60;;;7.70;;
58918;SDS011;44704;50.122;19.932;2022-09-17T07:08:19;10.00;;;7.50;;
58918;SDS011;44704;50.122;19.932;2022-09-17T07:13:15;8.10;;;6.20;;
58918;SDS011;44704;50.122;19.932;2022-09-17T07:15:41;7.70;;;6.50;;
58918;SDS011;44704;50.122;19.932;2022-09-17T07:18:09;7.40;;;5.90;;
58918;SDS011;44704;50.122;19.932;2022-09-17T07:20:37;9.20;;;6.40;;
58918;SDS011;44704;50.122;19.932;2022-09-17T07:23:04;8.10;;;5.90;;
58918;SDS011;44704;50.122;19.932;2022-09-17T07:25:31;8.50;;;6.20;;
58918;SDS011;44704;50.122;19.932;2022-09-17T07:27:58;8.30;;;5.50;;
58918;SDS011;44704;50.122;19.932;2022-09-17T07:30:25;7.80;;;5.10;;
58918;SDS011;44704;50.122;19.932;2022-09-17T07:32:52;6.20;;;4.70;;
58918;SDS011;44704;50.122;19.932;2022-09-17T07:35:19;6.70;;;4.50;;
58918;SDS011;44704;50.122;19.932;2022-09-17T07:37:48;10.10;;;5.10;;
58918;SDS011;44704;50.122;19.932;2022-09-17T07:40:16;4.40;;;4.00;;
58918;SDS011;44704;50.122;19.932;2022-09-17T07:42:43;4.40;;;3.70;;
58918;SDS011;44704;50.122;19.932;2022-09-17T07:45:10;4.30;;;3.90;;
58918;SDS011;44704;50.122;19.932;2022-09-17T07:47:39;9.20;;;4.00;;
58918;SDS011;44704;50.122;19.932;2022-09-17T07:50:09;5.30;;;3.50;;
58918;SDS011;44704;50.122;19.932;2022-09-17T07:52:47;5.60;;;3.20;;
58918;SDS011;44704;50.122;19.932;2022-09-17T07:55:16;4.60;;;3.00;;
58918;SDS011;44704;50.122;19.932;2022-09-17T07:57:49;6.20;;;3.80;;
58918;SDS011;44704;50.122;19.932;2022-09-17T08:00:16;5.40;;;3.50;;
58918;SDS011;44704;50.122;19.932;2022-09-17T08:02:44;5.50;;;3.60;;
58918;SDS011;44704;50.122;19.932;2022-09-17T08:05:13;7.20;;;3.40;;
58918;SDS011;44704;50.122;19.932;2022-09-17T08:07:40;3.90;;;3.40;;
58918;SDS011;44704;50.122;19.932;2022-09-17T08:10:07;9.10;;;3.80;;
58918;SDS011;44704;50.122;19.932;2022-09-17T08:12:36;5.30;;;2.90;;
58918;SDS011;44704;50.122;19.932;2022-09-17T08:15:03;3.80;;;3.30;;
58918;SDS011;44704;50.122;19.932;2022-09-17T08:17:30;6.30;;;3.70;;
58918;SDS011;44704;50.122;19.932;2022-09-17T08:20:00;3.60;;;3.10;;
58918;SDS011;44704;50.122;19.932;2022-09-17T08:22:30;6.10;;;3.40;;
58918;SDS011;44704;50.122;19.932;2022-09-17T08:25:16;7.50;;;3.60;;
58918;SDS011;44704;50.122;19.932;2022-09-17T08:27:43;3.90;;;3.20;;
58918;SDS011;44704;50.122;19.932;2022-09-17T08:30:10;6.60;;;3.50;;
58918;SDS011;44704;50.122;19.932;2022-09-17T08:32:37;6.30;;;3.40;;
58918;SDS011;44704;50.122;19.932;2022-09-17T08:35:04;3.90;;;3.00;;
58918;SDS011;44704;50.122;19.932;2022-09-17T08:37:31;5.10;;;3.20;;
58918;SDS011;44704;50.122;19.932;2022-09-17T08:39:58;5.00;;;3.20;;
58918;SDS011;44704;50.122;19.932;2022-09-17T08:42:29;3.50;;;3.20;;
58918;SDS011;44704;50.122;19.932;2022-09-17T08:45:04;4.20;;;3.20;;
58918;SDS011;44704;50.122;19.932;2022-09-17T08:47:42;4.00;;;2.50;;
58918;SDS011;44704;50.122;19.932;2022-09-17T08:50:43;5.20;;;2.70;;
58918;SDS011;44704;50.122;19.932;2022-09-17T08:55:58;4.20;;;2.90;;
58918;SDS011;44704;50.122;19.932;2022-09-17T09:01:23;4.20;;;2.50;;
58918;SDS011;44704;50.122;19.932;2022-09-17T09:04:14;4.70;;;2.40;;
58918;SDS011;44704;50.122;19.932;2022-09-17T09:06:57;6.70;;;2.90;;
58918;SDS011;44704;50.122;19.932;2022-09-17T09:09:36;4.90;;;2.60;;
58918;SDS011;44704;50.122;19.932;2022-09-17T09:12:10;2.50;;;2.20;;
58918;SDS011;44704;50.122;19.932;2022-09-17T09:17:16;2.50;;;2.30;;
58918;SDS011;44704;50.122;19.932;2022-09-17T09:19:47;2.30;;;2.10;;
58918;SDS011;44704;50.122;19.932;2022-09-17T09:22:34;3.40;;;2.70;;
58918;SDS011;44704;50.122;19.932;2022-09-17T09:25:27;4.70;;;2.30;;
58918;SDS011;44704;50.122;19.932;2022-09-17T09:30:50;2.90;;;2.10;;
58918;SDS011;44704;50.122;19.932;2022-09-17T09:33:25;3.30;;;2.20;;
58918;SDS011;44704;50.122;19.932;2022-09-17T09:35:56;2.30;;;2.10;;
58918;SDS011;44704;50.122;19.932;2022-09-17T09:38:34;9.70;;;2.80;;
58918;SDS011;44704;50.122;19.932;2022-09-17T09:41:37;4.90;;;2.70;;
58918;SDS011;44704;50.122;19.932;2022-09-17T09:44:10;3.50;;;2.30;;
58918;SDS011;44704;50.122;19.932;2022-09-17T09:55:10;2.60;;;2.30;;
58918;SDS011;44704;50.122;19.932;2022-09-17T09:58:02;3.40;;;2.00;;
58918;SDS011;44704;50.122;19.932;2022-09-17T10:00:42;2.00;;;1.70;;
58918;SDS011;44704;50.122;19.932;2022-09-17T10:03:17;3.10;;;1.60;;
58918;SDS011;44704;50.122;19.932;2022-09-17T10:05:56;9.70;;;2.20;;
58918;SDS011;44704;50.122;19.932;2022-09-17T10:08:31;2.20;;;1.80;;
58918;SDS011;44704;50.122;19.932;2022-09-17T10:11:05;4.40;;;1.90;;
58918;SDS011;44704;50.122;19.932;2022-09-17T10:13:45;3.40;;;1.80;;
58918;SDS011;44704;50.122;19.932;2022-09-17T10:16:16;2.60;;;2.00;;
58918;SDS011;44704;50.122;19.932;2022-09-17T10:18:43;2.30;;;1.90;;
58918;SDS011;44704;50.122;19.932;2022-09-17T10:21:18;3.30;;;1.70;;
58918;SDS011;44704;50.122;19.932;2022-09-17T10:23:45;3.80;;;1.50;;
58918;SDS011;44704;50.122;19.932;2022-09-17T10:26:26;2.70;;;1.60;;
58918;SDS011;44704;50.122;19.932;2022-09-17T10:28:58;3.00;;;1.90;;
58918;SDS011;44704;50.122;19.932;2022-09-17T10:34:19;4.00;;;1.70;;
58918;SDS011;44704;50.122;19.932;2022-09-17T10:36:57;2.00;;;1.50;;
58918;SDS011;44704;50.122;19.932;2022-09-17T10:39:31;1.50;;;1.20;;
58918;SDS011;44704;50.122;19.932;2022-09-17T10:42:04;1.40;;;1.30;;
58918;SDS011;44704;50.122;19.932;2022-09-17T10:44:49;1.80;;;1.30;;
58918;SDS011;44704;50.122;19.932;2022-09-17T10:47:26;1.90;;;1.60;;
58918;SDS011;44704;50.122;19.932;2022-09-17T10:58:00;2.20;;;1.80;;
58918;SDS011;44704;50.122;19.932;2022-09-17T11:08:45;3.80;;;1.80;;
58918;SDS011;44704;50.122;19.932;2022-09-17T11:34:45;4.20;;;2.40;;
58918;SDS011;44704;50.122;19.932;2022-09-17T11:42:39;4.30;;;2.50;;
58918;SDS011;44704;50.122;19.932;2022-09-17T11:45:18;3.00;;;2.20;;
58918;SDS011;44704;50.122;19.932;2022-09-17T11:47:57;4.10;;;2.40;;
58918;SDS011;44704;50.122;19.932;2022-09-17T11:50:39;3.20;;;2.30;;
58918;SDS011;44704;50.122;19.932;2022-09-17T11:53:16;4.30;;;2.30;;
58918;SDS011;44704;50.122;19.932;2022-09-17T11:56:17;4.80;;;2.90;;
58918;SDS011;44704;50.122;19.932;2022-09-17T12:02:40;3.90;;;2.80;;
58918;SDS011;44704;50.122;19.932;2022-09-17T12:05:09;3.30;;;2.80;;
58918;SDS011;44704;50.122;19.932;2022-09-17T12:07:48;3.40;;;2.40;;
58918;SDS011;44704;50.122;19.932;2022-09-17T12:16:12;6.60;;;3.10;;
58918;SDS011;44704;50.122;19.932;2022-09-17T12:18:45;4.10;;;2.60;;
58918;SDS011;44704;50.122;19.932;2022-09-17T12:21:15;5.10;;;2.90;;
58918;SDS011;44704;50.122;19.932;2022-09-17T12:23:54;4.90;;;3.00;;
58918;SDS011;44704;50.122;19.932;2022-09-17T12:32:24;5.10;;;2.80;;
58918;SDS011;44704;50.122;19.932;2022-09-17T12:46:32;6.90;;;2.80;;
58918;SDS011;44704;50.122;19.932;2022-09-17T12:49:29;4.10;;;3.00;;
58918;SDS011;44704;50.122;19.932;2022-09-17T13:00:47;3.40;;;2.50;;
58918;SDS011;44704;50.122;19.932;2022-09-17T13:03:23;5.60;;;2.80;;
58918;SDS011;44704;50.122;19.932;2022-09-17T13:19:49;3.90;;;2.80;;
58918;SDS011;44704;50.122;19.932;2022-09-17T13:22:44;6.10;;;3.20;;
58918;SDS011;44704;50.122;19.932;2022-09-17T13:25:14;5.90;;;3.20;;
58918;SDS011;44704;50.122;19.932;2022-09-17T13:27:44;4.70;;;3.30;;
58918;SDS011;44704;50.122;19.932;2022-09-17T13:30:13;3.80;;;3.20;;
58918;SDS011;44704;50.122;19.932;2022-09-17T13:32:43;4.90;;;3.40;;
58918;SDS011;44704;50.122;19.932;2022-09-17T13:42:55;5.70;;;3.60;;
58918;SDS011;44704;50.122;19.932;2022-09-17T13:45:24;4.20;;;3.30;;
58918;SDS011;44704;50.122;19.932;2022-09-17T13:47:55;4.00;;;2.70;;
58918;SDS011;44704;50.122;19.932;2022-09-17T13:53:07;5.10;;;2.70;;
58918;SDS011;44704;50.122;19.932;2022-09-17T13:55:50;5.90;;;3.00;;
58918;SDS011;44704;50.122;19.932;2022-09-17T13:58:30;6.60;;;3.40;;
58918;SDS011;44704;50.122;19.932;2022-09-17T14:01:00;3.10;;;2.50;;
58918;SDS011;44704;50.122;19.932;2022-09-17T14:13:53;4.70;;;2.90;;
58918;SDS011;44704;50.122;19.932;2022-09-17T14:21:42;4.60;;;4.00;;
58918;SDS011;44704;50.122;19.932;2022-09-17T14:32:21;5.80;;;4.60;;
58918;SDS011;44704;50.122;19.932;2022-09-17T14:34:59;4.60;;;3.70;;
58918;SDS011;44704;50.122;19.932;2022-09-17T14:37:28;7.80;;;4.60;;
58918;SDS011;44704;50.122;19.932;2022-09-17T14:39:55;11.60;;;6.20;;
58918;SDS011;44704;50.122;19.932;2022-09-17T14:42:28;6.70;;;4.60;;
58918;SDS011;44704;50.122;19.932;2022-09-17T14:45:01;9.70;;;6.30;;
58918;SDS011;44704;50.122;19.932;2022-09-17T14:47:33;9.10;;;4.70;;
58918;SDS011;44704;50.122;19.932;2022-09-17T14:52:53;7.90;;;4.20;;
58918;SDS011;44704;50.122;19.932;2022-09-17T14:55:21;7.20;;;4.40;;
58918;SDS011;44704;50.122;19.932;2022-09-17T14:57:54;5.20;;;4.40;;
58918;SDS011;44704;50.122;19.932;2022-09-17T15:00:24;7.00;;;4.00;;
58918;SDS011;44704;50.122;19.932;2022-09-17T15:02:57;10.60;;;4.90;;
58918;SDS011;44704;50.122;19.932;2022-09-17T15:05:28;8.90;;;5.90;;
58918;SDS011;44704;50.122;19.932;2022-09-17T15:10:37;8.10;;;5.40;;
58918;SDS011;44704;50.122;19.932;2022-09-17T15:13:12;7.70;;;5.10;;
58918;SDS011;44704;50.122;19.932;2022-09-17T15:18:52;7.30;;;3.70;;
58918;SDS011;44704;50.122;19.932;2022-09-17T15:21:35;5.40;;;3.60;;
58918;SDS011;44704;50.122;19.932;2022-09-17T15:24:16;6.90;;;3.60;;
58918;SDS011;44704;50.122;19.932;2022-09-17T15:26:54;6.50;;;3.60;;
58918;SDS011;44704;50.122;19.932;2022-09-17T15:29:25;7.30;;;3.30;;
58918;SDS011;44704;50.122;19.932;2022-09-17T15:31:54;5.60;;;3.50;;
58918;SDS011;44704;50.122;19.932;2022-09-17T15:34:21;4.60;;;3.30;;
58918;SDS011;44704;50.122;19.932;2022-09-17T15:37:02;5.40;;;3.90;;
58918;SDS011;44704;50.122;19.932;2022-09-17T15:39:42;5.10;;;3.70;;
58918;SDS011;44704;50.122;19.932;2022-09-17T15:44:51;4.00;;;3.60;;
58918;SDS011;44704;50.122;19.932;2022-09-17T15:47:34;5.80;;;3.80;;
58918;SDS011;44704;50.122;19.932;2022-09-17T15:50:17;5.80;;;4.00;;
58918;SDS011;44704;50.122;19.932;2022-09-17T15:52:47;5.40;;;4.10;;
58918;SDS011;44704;50.122;19.932;2022-09-17T15:55:25;9.70;;;4.20;;
58918;SDS011;44704;50.122;19.932;2022-09-17T15:58:02;7.60;;;4.20;;
58918;SDS011;44704;50.122;19.932;2022-09-17T16:00:31;5.40;;;4.00;;
58918;SDS011;44704;50.122;19.932;2022-09-17T16:03:01;6.20;;;4.30;;
58918;SDS011;44704;50.122;19.932;2022-09-17T16:08:46;6.70;;;4.60;;
58918;SDS011;44704;50.122;19.932;2022-09-17T16:11:21;5.60;;;4.40;;
58918;SDS011;44704;50.122;19.932;2022-09-17T16:16:22;5.60;;;4.30;;
58918;SDS011;44704;50.122;19.932;2022-09-17T16:19:01;8.00;;;4.60;;
58918;SDS011;44704;50.122;19.932;2022-09-17T16:21:29;7.80;;;5.00;;
58918;SDS011;44704;50.122;19.932;2022-09-17T16:23:57;8.90;;;5.10;;
58918;SDS011;44704;50.122;19.932;2022-09-17T16:26:27;8.00;;;4.90;;
58918;SDS011;44704;50.122;19.932;2022-09-17T16:28:58;8.70;;;5.20;;
58918;SDS011;44704;50.122;19.932;2022-09-17T16:31:30;7.50;;;5.00;;
58918;SDS011;44704;50.122;19.932;2022-09-17T16:33:58;9.10;;;5.00;;
58918;SDS011;44704;50.122;19.932;2022-09-17T16:36:26;9.10;;;5.10;;
58918;SDS011;44704;50.122;19.932;2022-09-17T16:38:56;9.10;;;5.60;;
58918;SDS011;44704;50.122;19.932;2022-09-17T16:41:24;9.00;;;6.10;;
58918;SDS011;44704;50.122;19.932;2022-09-17T16:43:51;10.70;;;6.10;;
58918;SDS011;44704;50.122;19.932;2022-09-17T16:46:18;9.00;;;6.20;;
58918;SDS011;44704;50.122;19.932;2022-09-17T16:48:48;8.10;;;6.00;;
58918;SDS011;44704;50.122;19.932;2022-09-17T16:51:16;11.20;;;6.70;;
58918;SDS011;44704;50.122;19.932;2022-09-17T16:53:43;7.70;;;6.40;;
58918;SDS011;44704;50.122;19.932;2022-09-17T16:56:12;8.90;;;6.40;;
58918;SDS011;44704;50.122;19.932;2022-09-17T17:01:07;18.90;;;8.60;;
58918;SDS011;44704;50.122;19.932;2022-09-17T17:03:35;15.00;;;8.50;;
58918;SDS011;44704;50.122;19.932;2022-09-17T17:06:02;13.70;;;7.10;;
58918;SDS011;44704;50.122;19.932;2022-09-17T17:08:30;11.10;;;8.10;;
58918;SDS011;44704;50.122;19.932;2022-09-17T17:10:58;8.60;;;6.80;;
58918;SDS011;44704;50.122;19.932;2022-09-17T17:13:26;11.10;;;7.80;;
58918;SDS011;44704;50.122;19.932;2022-09-17T17:15:53;8.50;;;6.70;;
58918;SDS011;44704;50.122;19.932;2022-09-17T17:18:20;10.40;;;7.20;;
58918;SDS011;44704;50.122;19.932;2022-09-17T17:20:48;12.70;;;7.70;;
58918;SDS011;44704;50.122;19.932;2022-09-17T17:23:16;11.00;;;8.00;;
58918;SDS011;44704;50.122;19.932;2022-09-17T17:25:43;12.70;;;8.30;;
58918;SDS011;44704;50.122;19.932;2022-09-17T17:28:10;14.20;;;9.50;;
58918;SDS011;44704;50.122;19.932;2022-09-17T17:30:37;16.80;;;8.80;;
58918;SDS011;44704;50.122;19.932;2022-09-17T17:33:04;10.40;;;7.30;;
58918;SDS011;44704;50.122;19.932;2022-09-17T17:35:31;11.00;;;7.70;;
58918;SDS011;44704;50.122;19.932;2022-09-17T17:37:58;9.30;;;8.10;;
58918;SDS011;44704;50.122;19.932;2022-09-17T17:40:25;11.60;;;8.70;;
58918;SDS011;44704;50.122;19.932;2022-09-17T17:42:52;11.00;;;8.50;;
58918;SDS011;44704;50.122;19.932;2022-09-17T17:45:20;11.00;;;7.40;;
58918;SDS011;44704;50.122;19.932;2022-09-17T17:47:47;10.30;;;8.00;;
58918;SDS011;44704;50.122;19.932;2022-09-17T17:50:14;12.80;;;9.70;;
58918;SDS011;44704;50.122;19.932;2022-09-17T17:52:41;14.50;;;11.40;;
58918;SDS011;44704;50.122;19.932;2022-09-17T17:55:14;16.30;;;12.10;;
58918;SDS011;44704;50.122;19.932;2022-09-17T17:57:41;15.30;;;11.00;;
58918;SDS011;44704;50.122;19.932;2022-09-17T18:00:08;17.50;;;10.50;;
58918;SDS011;44704;50.122;19.932;2022-09-17T18:02:40;17.00;;;10.40;;
58918;SDS011;44704;50.122;19.932;2022-09-17T18:05:07;19.00;;;12.70;;
58918;SDS011;44704;50.122;19.932;2022-09-17T18:07:34;14.80;;;10.30;;
58918;SDS011;44704;50.122;19.932;2022-09-17T18:10:02;15.20;;;10.50;;
58918;SDS011;44704;50.122;19.932;2022-09-17T18:12:29;19.90;;;11.30;;
58918;SDS011;44704;50.122;19.932;2022-09-17T18:14:56;15.40;;;10.80;;
58918;SDS011;44704;50.122;19.932;2022-09-17T18:17:23;17.80;;;11.70;;
58918;SDS011;44704;50.122;19.932;2022-09-17T18:19:50;13.40;;;10.40;;
58918;SDS011;44704;50.122;19.932;2022-09-17T18:22:17;14.10;;;9.00;;
58918;SDS011;44704;50.122;19.932;2022-09-17T18:24:44;12.20;;;8.70;;